WetterOnline ( https://www.wetteronline.de )

Wetter aktuell Lipprechterode

Aktuelles Wetter: Leinefelde (356m)

6-stündlich | Neueste Meldungen
Ortszeit Temperatur Wetter
Do, 25.02. 19:00 13.2° C leicht bewölkt
Do, 25.02. 13:00 16.2° C wolkenlos
Do, 25.02. 7:00 9.1° C wolkenlos
Do, 25.02. 1:00 11.0° C wolkenlos
Mi, 24.02. 19:00 14.0° C wolkenlos
Mi, 24.02. 13:00 15.1° C wolkenlos
Mi, 24.02. 7:00 10.4° C bewölkt
Mi, 24.02. 1:00 9.3° C wolkig
Ortszeit Temperatur Wetter
Do, 25.02. 20:30 12.3° C wolkig
Do, 25.02. 20:20 12.3° C wolkig
Do, 25.02. 20:10 12.0° C leicht bewölkt
Do, 25.02. 20:00 10.8° C leicht bewölkt
Do, 25.02. 19:50 10.8° C leicht bewölkt
Do, 25.02. 19:40 11.9° C leicht bewölkt
Do, 25.02. 19:30 13.3° C fast wolkenlos
Do, 25.02. 19:00 13.2° C leicht bewölkt
Do, 25.02. 18:30 14.1° C wolkenlos
Do, 25.02. 18:00 14.3° C wolkenlos
Do, 25.02. 17:30 15.5° C wolkenlos
Ortszeit Relative Feuchte Sichtweite
Do, 25.02. 19:00 60% 24 km
Do, 25.02. 13:00 51% 19 km
Do, 25.02. 7:00 72% 23 km
Do, 25.02. 1:00 69% 24 km
Mi, 24.02. 19:00 62% 22 km
Mi, 24.02. 13:00 60% 22 km
Mi, 24.02. 7:00 72% 30 km
Mi, 24.02. 1:00 77% 27 km
Ortszeit Relative Feuchte Sichtweite
Do, 25.02. 20:30 62% 26 km
Do, 25.02. 20:20 62% -
Do, 25.02. 20:10 64% -
Do, 25.02. 20:00 69% 25 km
Do, 25.02. 19:50 69% -
Do, 25.02. 19:40 64% -
Do, 25.02. 19:30 60% 27 km
Do, 25.02. 19:00 60% 24 km
Do, 25.02. 18:30 59% 23 km
Do, 25.02. 18:00 57% 27 km
Do, 25.02. 17:30 53% 26 km
Ortszeit Niederschlagsmenge Niederschlagsart
Do, 25.02. 19:00 0.0 l/m2 in 12 Std. -
Do, 25.02. 13:00 0.0 l/m2 in 6 Std. -
Do, 25.02. 7:00 0.0 l/m2 in 12 Std. -
Do, 25.02. 1:00 0.0 l/m2 in 6 Std. -
Mi, 24.02. 19:00 0.0 l/m2 in 12 Std. -
Mi, 24.02. 13:00 0.0 l/m2 in 6 Std. -
Mi, 24.02. 7:00 0.0 l/m2 in 12 Std. -
Mi, 24.02. 1:00 0.0 l/m2 in 6 Std. -
Ortszeit Niederschlagsmenge Niederschlagsart
Do, 25.02. 20:30 0.0 l/m2 in 1 Std. -
Do, 25.02. 20:20 keine Meldung -
Do, 25.02. 20:10 keine Meldung -
Do, 25.02. 20:00 0.0 l/m2 in 1 Std. -
Do, 25.02. 19:50 keine Meldung -
Do, 25.02. 19:40 keine Meldung -
Do, 25.02. 19:30 0.0 l/m2 in 1 Std. -
Do, 25.02. 19:00 0.0 l/m2 in 1 Std. -
Do, 25.02. 18:30 0.0 l/m2 in 1 Std. -
Do, 25.02. 18:00 0.0 l/m2 in 1 Std. -
Do, 25.02. 17:30 0.0 l/m2 in 1 Std. -
Ortszeit Stärke Spitze Richtung
km/h Bft. km/h Grad Sektor
Do, 25.02. 19:00 4 1 25 220° SW
Do, 25.02. 13:00 14 3 29 210° SW
Do, 25.02. 7:00 7 2 14 160° S
Do, 25.02. 1:00 4 1 18 80° O
Mi, 24.02. 19:00 6 1 28 180° S
Mi, 24.02. 13:00 15 3 33 220° SW
Mi, 24.02. 7:00 14 3 22 220° SW
Mi, 24.02. 1:00 6 1 13 190° S
Ortszeit Stärke Spitze Richtung
km/h Bft. km/h Grad Sektor
Do, 25.02. 20:30 0 0 7 - -
Do, 25.02. 20:20 2 1 - 160° S
Do, 25.02. 20:10 4 1 - 160° S
Do, 25.02. 20:00 2 1 6 190° S
Do, 25.02. 19:50 2 1 - 190° S
Do, 25.02. 19:40 2 1 - 260° W
Do, 25.02. 19:30 4 1 7 270° W
Do, 25.02. 19:00 4 1 7 220° SW
Do, 25.02. 18:30 4 1 7 240° SW
Do, 25.02. 18:00 7 2 14 280° W
Do, 25.02. 17:30 9 2 15 280° W
Ortszeit Untergrenze Bedeckung Gattung
total tief tief mittel hoch
Do, 25.02. 19:00 9000 m 4/8 0/8 - - -
Do, 25.02. 13:00 - 0/8 0/8 - - -
Do, 25.02. 7:00 - 0/8 0/8 - - -
Do, 25.02. 1:00 - 0/8 0/8 - - -
Mi, 24.02. 19:00 - 0/8 0/8 - - -
Mi, 24.02. 13:00 - 0/8 0/8 - - -
Mi, 24.02. 7:00 1500 m 8/8 7/8 - - -
Mi, 24.02. 1:00 10500 m 8/8 0/8 - - -
Ortszeit Bedeckungsgrad in Achtel und Wolkenuntergrenze
Do, 25.02. 20:30 8(8400m) 8(9000m)
Do, 25.02. 20:20 8(8400m) 8(9000m)
Do, 25.02. 20:10 6(8400m) 6(9000m)
Do, 25.02. 20:00 4(9000m) 6(9000m)
Do, 25.02. 19:50 4(9000m)
Do, 25.02. 19:40 5(9000m)
Do, 25.02. 19:30 1(9000m)
Do, 25.02. 19:00 4(9000m)
Do, 25.02. 18:30 keine Wolken
Do, 25.02. 18:00 keine Wolken
Do, 25.02. 17:30 keine Wolken
Ortszeit Luftdruck NN (hPa) Tendenz (hPa in 3 Std.)
Do, 25.02. 19:00 1027 + 0,7
Do, 25.02. 13:00 1027 - 0,2
Do, 25.02. 7:00 1028 - 0,9
Do, 25.02. 1:00 1029 - 0,6
Mi, 24.02. 19:00 1030 - 0,1
Mi, 24.02. 13:00 1032 - 0,5
Mi, 24.02. 7:00 1033 - 0,6
Mi, 24.02. 1:00 1033 - 0,9
Ortszeit Luftdruck NN (hPa) Tendenz (hPa in 3 Std.)
Do, 25.02. 20:30 1027 + 0,5
Do, 25.02. 20:20 1027 keine Meldung
Do, 25.02. 20:10 1027 keine Meldung
Do, 25.02. 20:00 1027 + 0,7
Do, 25.02. 19:50 1027 keine Meldung
Do, 25.02. 19:40 1027 keine Meldung
Do, 25.02. 19:30 1027 + 0,9
Do, 25.02. 19:00 1027 + 0,7
Do, 25.02. 18:30 1027 + 0,5
Do, 25.02. 18:00 1026 + 0,2
Do, 25.02. 17:30 1026 0,0
Ortszeit Schneehöhe (cm)
Do, 25.02. 19:00 0
Do, 25.02. 13:00 0
Do, 25.02. 7:00 0
Do, 25.02. 1:00 0
Mi, 24.02. 19:00 0
Mi, 24.02. 13:00 0
Mi, 24.02. 7:00 0
Mi, 24.02. 1:00 0
Ortszeit Schneehöhe (cm)
Do, 25.02. 20:30 0
Do, 25.02. 20:20 0
Do, 25.02. 20:10 0
Do, 25.02. 20:00 0
Do, 25.02. 19:50 0
Do, 25.02. 19:40 0
Do, 25.02. 19:30 0
Do, 25.02. 19:00 0
Do, 25.02. 18:30 0
Do, 25.02. 18:00 0
Do, 25.02. 17:30 0
Link zu dieser Seite / Seite empfehlen

Das Wetter in ...